RJOA/HIJ METAR and TAF weather

Enter ICAO airport designator
Station Type Date Time Source
RJOA METAR 2019/12/11 12:00 UTC NOAA

RJOA 111200Z 30005KT 9999 FEW035 08/05 Q1015


Station Type Date Time Source
RJOA Decoded METAR 2019/12/11 12:00 UTC NOAA

Hiroshima Airport, Japan (RJOA) 34-26N 132-55E 334M
Dec 11, 2019 - 07:00 AM EST / 2019.12.11 1200 UTC
Wind: from the WNW (300 degrees) at 6 MPH (5 KT):0
Visibility: greater than 7 mile(s):0
Sky conditions: mostly clear
Temperature: 46 F (8 C)
Dew Point: 41 F (5 C)
Relative Humidity: 81%
Pressure (altimeter): 29.97 in. Hg (1015 hPa)
ob: RJOA 111200Z 30005KT 9999 FEW035 08/05 Q1015
cycle: 12

Station Type Date Time Source
RJOA TAF 2019/12/11 12:30 UTC NOAA

TAF RJOA 111105Z 1112/1218 29005KT 8000 FEW025 SCT045

Example: see airport list